Strona główna
METAR-TAF:

METAR-TAF

Lotnisko :

Port lotniczy Wagadugu

Wagadugu, Burkina Faso

Szerokość geograficzna: 12-21N, Długość geograficzna: 001-31W, wysokość: 316 m

Aktualna obserwacja pogody

Raport powstał 54 minut temu, godzina 11:00 UTC
Wiatr 13 kt od wschód
Temperatura 32°C
Wilgotność 9%
Ciśnienie 1013 hPa
Widzialność 10 km lub więcej
Brak chmur poniżej 1500 m i brak chmur cumulonimbus

METAR: DFFD 161100Z 09013KT CAVOK 32/M05 Q1013 NOSIG

czas: 11:54 (11:54 UTC)

Prognoza

Raport powstał 54 minut temu, godzina 11:00 UTC
Prognoza ważna od 16 godzina 12 UTC do 17 godzina 18 UTC
Wiatr 10 kt od wschodnio-północny wschód
Widzialność: 8000 m
Przejściowo
od 16 godzina 18 UTC do 16 godzina 21 UTC
Widzialność: 4000 m
zmętnienie
Przejściowo
od 17 godzina 06 UTC do 17 godzina 10 UTC
Widzialność: 2500 m
zmętnienie

TAF: DFFD 161100Z 1612/1718 06010KT 8000 NSC TEMPO 1618/1621 4000 HZ TEMPO 1706/1710 2500 HZ

Obserwacja i prognoza pogody dla ponad 4000 lotnisk (raport METAR i TAF).

Dostępne stacje oznaczono żółtymi i czerwonymi punktami na mapie.

Najedź kursorem aby zobaczyć nazwę stacji.

Kliknij aby zobaczyć obserwacje i prognozy pogody.

Aby zmienić mapę: kliknij na zielony przycisk z czarnym krzyżykiem, aby powiększyć; na zielony przycisk z myślnikiem, aby pomniejszyć; na zielone strzałki, aby przejść do map sąsiednich.


METAR-TAF: